Choctaw, Arkansas
Current Conditions -  °F | °C
As of 1:53 PM on Thursday 30 Oct 2014 (Local Time) from KRUE Reporting Station
Overcast Overcast  
Wind Chill: 21°   Ceiling: 11000
Heat Index: 21°   Visibility: 10mi
Dew Point:   Wind: 5mph
Humidity: 44%   Direction: NA
Pressure: 30.06"   Gusts: NA
Location:  35.53°N, 92.44°W
Report Text: KRUE 301853Z AUTO VRB04KT 10SM SCT090 OVC110 21/08 A3006 RMK AO2 SLP175 T02060078
Loading
Personal Weather Stations






























Interactive Weather Map
Tropical Storm Tracking
New forecast layout! Learn more

10-Day Weather Forecast

Advertisements
Track Severe Weather on mobile